Brasinho — CSXI9 — position and weather

sailwx.info

Track history (hours):
 
Tides and Currents Weather Stations Pressure Air Temp Water Temp Dewpoint Dewpoint Depression Visibility Wind Speed Wind Dir Waves Ship Positions

Brasinho

Last reported at 2016-May-20 07:20 UTC. Time now 2016-Sep-25 07:09 UTC.
Position N 39°02' W 009°48'.
Warning: this ship's position is months out of date.

Length 57 m; draft 1.8 m.

Type: Dredging. MMSI: 263670240.

Date/timePositionNaut miles runAvg speedWind from/ knotsBaromVisibWave heightAir tempDewpointWater temp
2016-May-20 07:20N 39°02' W 009°48'17 5.2
2016-May-20 04:05N 38°45' W 009°49'4 4.6
2016-May-20 03:15N 38°41' W 009°49'4 5.0
2016-May-20 02:30N 38°39' W 009°46'5 5.1
2016-May-20 01:31N 38°36' W 009°40'5 5.3
2016-May-20 00:31N 38°33' W 009°35'11 5.6
2016-May-19 22:33N 38°24' W 009°25'5 5.4
2016-May-19 21:33N 38°19' W 009°25'5 4.5
2016-May-19 20:32N 38°15' W 009°27'3 3.5
2016-May-19 19:33N 38°11' W 009°28'3 3.4
2016-May-19 18:33N 38°08' W 009°28'3 3.5
2016-May-19 17:33N 38°04' W 009°27'4 3.7
2016-May-19 16:32N 38°01' W 009°28'4 3.5
2016-May-19 15:33N 37°57' W 009°28'4 3.6
2016-May-19 14:32N 37°54' W 009°28'4 3.9
2016-May-19 13:33N 37°50' W 009°27'78 4.1
2016-May-18 18:33N 36°57' W 008°15'7 7.0
2016-May-18 17:33N 36°57' W 008°06'7 7.5
2016-May-18 16:33N 36°57' W 007°57'3 3.2
2016-May-18 15:33N 36°60' W 007°55'1 0.7
2016-May-18 14:31N 37°00' W 007°55'0 0.0
2016-May-18 13:31N 37°00' W 007°55'0 0.0
2016-May-18 12:31N 37°00' W 007°55'0 0.0
2016-May-18 11:31N 37°00' W 007°55'0 0.0
2016-May-18 10:32N 37°00' W 007°55'0 0.0
2016-May-18 09:32N 37°00' W 007°55'0 0.0
2016-May-18 08:32N 37°00' W 007°55'0 0.0
2016-May-17 17:31N 37°00' W 007°55'0 0.0
2016-May-17 16:31N 37°00' W 007°55'0 0.0
2016-May-17 15:31N 37°00' W 007°55'0 0.0
2016-May-17 14:31N 37°00' W 007°55'0 0.1
2016-May-17 12:33N 37°00' W 007°55'0 0.0
2016-May-16 15:28N 37°00' W 007°55'0 0.0
2016-May-16 14:33N 37°00' W 007°55'  
2016-May-13 09:25N 37°00' W 007°55'0 0.0
2016-May-13 08:31N 37°00' W 007°55'  
Track history (hours):
 
Tides and Currents Weather Stations Pressure Air Temp Water Temp Dewpoint Dewpoint Depression Visibility Wind Speed Wind Dir Waves Ship Positions

Brasinho

Last reported at 2016-May-20 07:20 UTC. Time now 2016-Sep-25 07:09 UTC.
Position N 39°02' W 009°48'.
Warning: this ship's position is months out of date.

Length 57 m; draft 1.8 m.

Type: Dredging. MMSI: 263670240.

Date/timePositionNaut miles runAvg speedWind from/ knotsBaromVisibWave heightAir tempDewpointWater temp
2016-May-20 07:20N 39°02' W 009°48'17 5.2
2016-May-20 04:05N 38°45' W 009°49'4 4.6
2016-May-20 03:15N 38°41' W 009°49'4 5.0
2016-May-20 02:30N 38°39' W 009°46'5 5.1
2016-May-20 01:31N 38°36' W 009°40'5 5.3
2016-May-20 00:31N 38°33' W 009°35'11 5.6
2016-May-19 22:33N 38°24' W 009°25'5 5.4
2016-May-19 21:33N 38°19' W 009°25'5 4.5
2016-May-19 20:32N 38°15' W 009°27'3 3.5
2016-May-19 19:33N 38°11' W 009°28'3 3.4
2016-May-19 18:33N 38°08' W 009°28'3 3.5
2016-May-19 17:33N 38°04' W 009°27'4 3.7
2016-May-19 16:32N 38°01' W 009°28'4 3.5
2016-May-19 15:33N 37°57' W 009°28'4 3.6
2016-May-19 14:32N 37°54' W 009°28'4 3.9
2016-May-19 13:33N 37°50' W 009°27'78 4.1
2016-May-18 18:33N 36°57' W 008°15'7 7.0
2016-May-18 17:33N 36°57' W 008°06'7 7.5
2016-May-18 16:33N 36°57' W 007°57'3 3.2
2016-May-18 15:33N 36°60' W 007°55'1 0.7
2016-May-18 14:31N 37°00' W 007°55'0 0.0
2016-May-18 13:31N 37°00' W 007°55'0 0.0
2016-May-18 12:31N 37°00' W 007°55'0 0.0
2016-May-18 11:31N 37°00' W 007°55'0 0.0
2016-May-18 10:32N 37°00' W 007°55'0 0.0
2016-May-18 09:32N 37°00' W 007°55'0 0.0
2016-May-18 08:32N 37°00' W 007°55'0 0.0
2016-May-17 17:31N 37°00' W 007°55'0 0.0
2016-May-17 16:31N 37°00' W 007°55'0 0.0
2016-May-17 15:31N 37°00' W 007°55'0 0.0
2016-May-17 14:31N 37°00' W 007°55'0 0.1
2016-May-17 12:33N 37°00' W 007°55'0 0.0
2016-May-16 15:28N 37°00' W 007°55'0 0.0
2016-May-16 14:33N 37°00' W 007°55'  
2016-May-13 09:25N 37°00' W 007°55'0 0.0
2016-May-13 08:31N 37°00' W 007°55'  

Dump ship's entire track history